createdAt,value
2023-02-11T00:01:07.185Z,38.60
2023-02-11T00:03:33.631Z,36.37
2023-02-11T00:06:02.483Z,37.38
2023-02-11T00:08:28.859Z,37.25
2023-02-11T00:10:57.407Z,34.92
2023-02-11T00:13:25.106Z,38.60
2023-02-11T00:15:51.781Z,35.00
2023-02-11T00:18:18.423Z,38.25
2023-02-11T00:20:44.815Z,37.45
2023-02-11T00:23:11.201Z,38.35
2023-02-11T00:25:45.131Z,35.65
2023-02-11T00:28:11.966Z,35.30
2023-02-11T00:30:38.560Z,34.85
2023-02-11T00:33:05.024Z,36.55
2023-02-11T00:35:31.382Z,39.75
2023-02-11T00:37:57.942Z,40.25
2023-02-11T00:40:24.504Z,41.27
2023-02-11T00:42:50.928Z,41.65
2023-02-11T00:45:17.438Z,33.38
2023-02-11T00:47:43.821Z,35.67
2023-02-11T00:50:10.238Z,37.80
2023-02-11T00:52:36.629Z,40.77
2023-02-11T00:55:03.065Z,35.28
2023-02-11T00:57:29.500Z,34.78
2023-02-11T00:59:55.855Z,35.58
2023-02-11T01:02:22.224Z,37.38
2023-02-11T01:04:48.697Z,39.67
2023-02-11T01:07:15.126Z,32.50
2023-02-11T01:09:41.469Z,35.08
2023-02-11T01:12:07.864Z,36.75
2023-02-11T01:14:34.242Z,35.47
2023-02-11T01:17:00.620Z,39.47
2023-02-11T01:19:27.025Z,36.55
2023-02-11T01:21:53.388Z,34.75
2023-02-11T01:24:19.766Z,34.35
2023-02-11T01:26:46.156Z,31.65
2023-02-11T01:29:12.557Z,36.17
2023-02-11T01:31:39.129Z,37.35
2023-02-11T01:34:06.693Z,35.63
2023-02-11T01:36:33.125Z,31.95
2023-02-11T01:39:00.062Z,35.92
2023-02-11T01:41:26.455Z,35.90
2023-02-11T01:43:52.829Z,34.35
2023-02-11T01:46:36.622Z,33.55
2023-02-11T01:49:15.027Z,31.98
2023-02-11T01:51:46.831Z,32.97
2023-02-11T01:54:37.135Z,32.80
2023-02-11T01:57:24.677Z,34.25
2023-02-11T02:00:09.766Z,35.10
2023-02-11T02:02:43.788Z,33.05
2023-02-11T02:05:35.617Z,35.40
2023-02-11T02:08:27.634Z,31.07
2023-02-11T02:10:56.461Z,36.80
2023-02-11T02:13:24.794Z,36.88
2023-02-11T02:15:55.675Z,33.95
2023-02-11T02:18:42.399Z,31.02
2023-02-11T02:21:46.429Z,33.70
2023-02-11T02:24:39.704Z,35.50
2023-02-11T02:27:26.271Z,30.38
2023-02-11T02:30:17.409Z,32.28
2023-02-11T02:32:53.771Z,32.28
2023-02-11T02:35:51.889Z,33.83
2023-02-11T02:38:27.624Z,34.25
2023-02-11T02:40:59.264Z,30.83
2023-02-11T02:43:27.491Z,32.80
2023-02-11T02:45:54.171Z,33.03
2023-02-11T02:48:29.988Z,31.47
2023-02-11T02:51:16.826Z,33.50
2023-02-11T02:53:49.036Z,31.27
2023-02-11T02:56:23.489Z,33.22
2023-02-11T02:59:10.175Z,30.88
2023-02-11T03:01:58.506Z,27.33
2023-02-11T03:04:41.782Z,34.55
2023-02-11T03:07:27.366Z,29.67
2023-02-11T03:10:17.622Z,31.70
2023-02-11T03:12:47.073Z,33.08
2023-02-11T03:15:14.929Z,34.33
2023-02-11T03:17:47.574Z,32.50
2023-02-11T03:20:17.484Z,37.22
2023-02-11T03:22:52.820Z,31.05
2023-02-11T03:25:20.607Z,30.73
2023-02-11T03:27:53.863Z,32.33
2023-02-11T03:30:35.182Z,35.13
2023-02-11T03:33:10.564Z,30.83
2023-02-11T03:35:47.308Z,34.38
2023-02-11T03:38:34.830Z,31.10
2023-02-11T03:41:03.336Z,36.20
2023-02-11T03:43:42.736Z,30.98
2023-02-11T03:46:11.921Z,32.92
2023-02-11T03:48:43.734Z,33.40
2023-02-11T03:51:12.405Z,35.92
2023-02-11T03:53:42.832Z,36.13
2023-02-11T03:56:13.019Z,31.73
2023-02-11T03:58:39.430Z,34.47
2023-02-11T04:01:09.711Z,40.05
2023-02-11T04:03:36.306Z,32.67
2023-02-11T04:06:02.755Z,34.20
2023-02-11T04:08:29.155Z,36.58
2023-02-11T04:10:55.557Z,33.42
2023-02-11T04:13:22.432Z,37.42
2023-02-11T04:15:49.210Z,36.85
2023-02-11T04:18:15.665Z,33.13
2023-02-11T04:20:42.277Z,38.60
2023-02-11T04:23:10.110Z,34.28
2023-02-11T04:25:36.597Z,35.92
2023-02-11T04:28:03.081Z,40.05
2023-02-11T04:30:29.547Z,40.03
2023-02-11T04:32:55.925Z,39.08
2023-02-11T04:35:22.311Z,40.33
2023-02-11T04:37:48.706Z,35.72
2023-02-11T04:40:15.086Z,38.70
2023-02-11T04:42:41.448Z,38.03
2023-02-11T04:45:08.276Z,39.92
2023-02-11T04:47:34.858Z,36.50
2023-02-11T04:50:01.256Z,37.03
2023-02-11T04:52:27.612Z,36.88
2023-02-11T04:54:53.984Z,38.83
2023-02-11T04:57:20.322Z,35.38
2023-02-11T04:59:46.723Z,40.85
2023-02-11T05:02:13.082Z,38.13
2023-02-11T05:04:39.493Z,35.40
2023-02-11T05:07:05.848Z,35.03
2023-02-11T05:09:32.428Z,39.15
2023-02-11T05:11:58.800Z,36.08
2023-02-11T05:14:25.181Z,33.25
2023-02-11T05:16:51.686Z,37.05
2023-02-11T05:19:18.079Z,36.70
2023-02-11T05:22:00.210Z,34.55
2023-02-11T05:24:28.302Z,35.03
2023-02-11T05:26:54.674Z,37.40
2023-02-11T05:29:21.086Z,39.22
2023-02-11T05:31:47.454Z,36.67
2023-02-11T05:34:13.817Z,39.58
2023-02-11T05:36:40.254Z,43.08
2023-02-11T05:39:06.755Z,38.78
2023-02-11T05:41:33.142Z,36.95
2023-02-11T05:43:59.516Z,37.80
2023-02-11T05:46:26.000Z,40.30
2023-02-11T05:48:52.405Z,41.22
2023-02-11T05:51:18.830Z,38.40
2023-02-11T05:53:45.214Z,43.00
2023-02-11T05:56:12.458Z,38.50
2023-02-11T05:58:39.084Z,41.88
2023-02-11T06:01:05.491Z,41.65
2023-02-11T06:03:32.035Z,36.80
2023-02-11T06:05:58.509Z,43.03
2023-02-11T06:08:25.054Z,44.83
2023-02-11T06:10:51.446Z,45.70
2023-02-11T06:13:19.460Z,43.33
2023-02-11T06:15:55.027Z,46.28
2023-02-11T06:18:21.394Z,43.25
2023-02-11T06:20:47.750Z,44.60
2023-02-11T06:23:14.102Z,38.45
2023-02-11T06:25:40.530Z,43.83
2023-02-11T06:28:06.923Z,40.45
2023-02-11T06:30:33.334Z,46.40
2023-02-11T06:32:59.695Z,45.30
2023-02-11T06:35:26.082Z,41.58
2023-02-11T06:37:53.884Z,46.28
2023-02-11T06:40:20.620Z,43.28
2023-02-11T06:42:47.066Z,49.97
2023-02-11T06:45:13.495Z,49.33
2023-02-11T06:47:40.718Z,44.40
2023-02-11T06:50:08.966Z,41.95
2023-02-11T06:52:35.350Z,44.28
2023-02-11T06:55:02.501Z,40.20
2023-02-11T06:57:30.750Z,45.73
2023-02-11T06:59:57.257Z,41.72
2023-02-11T07:02:23.688Z,42.03
2023-02-11T07:04:50.189Z,44.65
2023-02-11T07:07:16.568Z,38.75
2023-02-11T07:09:43.059Z,41.60
2023-02-11T07:12:11.349Z,43.17
2023-02-11T07:14:37.940Z,48.13
2023-02-11T07:17:04.804Z,41.15
2023-02-11T07:19:31.223Z,47.63
2023-02-11T07:21:57.608Z,41.27
2023-02-11T07:24:24.878Z,45.38
2023-02-11T07:26:51.241Z,46.78
2023-02-11T07:29:17.608Z,44.97
2023-02-11T07:31:44.152Z,45.42
2023-02-11T07:34:10.756Z,42.23
2023-02-11T07:36:37.581Z,46.42
2023-02-11T07:39:04.006Z,40.55
2023-02-11T07:41:30.449Z,47.78
2023-02-11T07:43:56.927Z,43.28
2023-02-11T07:46:27.260Z,41.30
2023-02-11T07:48:54.914Z,37.60
2023-02-11T07:51:24.354Z,39.88
2023-02-11T07:53:52.008Z,41.38
2023-02-11T07:56:20.207Z,40.28
2023-02-11T07:58:46.618Z,37.90
2023-02-11T08:01:17.580Z,43.22
2023-02-11T08:03:44.312Z,37.17
2023-02-11T08:06:13.228Z,39.78
2023-02-11T08:08:40.091Z,40.65
2023-02-11T08:11:13.978Z,35.80
2023-02-11T08:13:40.712Z,38.92
2023-02-11T08:16:08.270Z,38.33
2023-02-11T08:18:35.672Z,35.90
2023-02-11T08:21:09.525Z,38.00
2023-02-11T08:23:38.025Z,39.10
2023-02-11T08:26:10.149Z,35.22
2023-02-11T08:28:38.320Z,37.47
2023-02-11T08:31:16.801Z,38.08
2023-02-11T08:33:44.106Z,34.70
2023-02-11T08:36:19.063Z,36.37
2023-02-11T08:38:45.757Z,35.42
2023-02-11T08:41:14.837Z,31.85
2023-02-11T08:43:42.343Z,36.45
2023-02-11T08:46:10.108Z,37.95
2023-02-11T08:48:36.543Z,31.57
2023-02-11T08:51:10.360Z,39.53
2023-02-11T08:53:37.294Z,33.75
2023-02-11T08:56:03.813Z,33.45
2023-02-11T08:58:30.428Z,31.52
2023-02-11T09:00:56.873Z,31.43
2023-02-11T09:03:23.498Z,35.22
2023-02-11T09:05:52.932Z,31.15
2023-02-11T09:08:20.502Z,35.40
2023-02-11T09:10:47.298Z,32.22
2023-02-11T09:13:14.080Z,33.27
2023-02-11T09:15:40.543Z,30.40
2023-02-11T09:18:07.457Z,29.02
2023-02-11T09:20:34.168Z,31.73
2023-02-11T09:23:00.642Z,34.80
2023-02-11T09:25:27.299Z,32.73
2023-02-11T09:27:54.013Z,32.25
2023-02-11T09:30:21.127Z,33.67
2023-02-11T09:32:47.571Z,30.63
2023-02-11T09:35:14.023Z,33.85
2023-02-11T09:37:40.431Z,30.57
2023-02-11T09:40:07.358Z,29.88
2023-02-11T09:42:38.948Z,31.23
2023-02-11T09:45:17.411Z,32.00
2023-02-11T09:47:50.867Z,28.52
2023-02-11T09:50:38.889Z,31.23
2023-02-11T09:53:11.026Z,31.30
2023-02-11T09:55:44.866Z,33.78
2023-02-11T09:58:17.654Z,30.10
2023-02-11T10:00:48.998Z,32.45
2023-02-11T10:03:27.919Z,31.40
2023-02-11T10:06:28.974Z,35.65
2023-02-11T10:09:26.405Z,33.40
2023-02-11T10:12:02.805Z,36.03
2023-02-11T10:14:48.932Z,31.30
2023-02-11T10:17:50.803Z,33.73
2023-02-11T10:20:52.656Z,34.40
2023-02-11T10:23:22.488Z,32.85
2023-02-11T10:25:52.856Z,32.63
2023-02-11T10:28:22.006Z,31.23
2023-02-11T10:30:54.706Z,29.83
2023-02-11T10:33:33.067Z,35.38
2023-02-11T10:35:59.962Z,35.20
2023-02-11T10:38:27.740Z,37.65
2023-02-11T10:40:54.214Z,35.90
2023-02-11T10:43:24.363Z,32.53
2023-02-11T10:45:53.024Z,35.47
2023-02-11T10:48:38.630Z,35.63
2023-02-11T10:51:13.411Z,31.08
2023-02-11T10:53:40.781Z,32.03
2023-02-11T10:56:10.568Z,30.63
2023-02-11T10:59:01.129Z,31.10
2023-02-11T11:01:44.083Z,30.65
2023-02-11T11:04:45.216Z,31.15
2023-02-11T11:07:14.593Z,27.92
2023-02-11T11:09:48.593Z,26.47
2023-02-11T11:12:31.501Z,28.40
2023-02-11T11:15:14.270Z,30.42
2023-02-11T11:17:40.642Z,27.50
2023-02-11T11:20:20.541Z,30.98
2023-02-11T11:22:49.540Z,29.53
2023-02-11T11:25:24.040Z,29.02
2023-02-11T11:27:52.814Z,24.10
2023-02-11T11:30:20.163Z,28.55
2023-02-11T11:32:46.942Z,25.55
2023-02-11T11:35:28.367Z,26.10
2023-02-11T11:38:03.847Z,25.77
2023-02-11T11:40:32.846Z,24.35
2023-02-11T11:43:22.636Z,25.90
2023-02-11T11:45:56.754Z,24.42
2023-02-11T11:48:31.271Z,23.60
2023-02-11T11:51:01.276Z,25.48
2023-02-11T11:53:51.075Z,26.17
2023-02-11T11:56:22.315Z,25.05
2023-02-11T11:58:50.238Z,23.80
2023-02-11T12:01:28.564Z,24.23
2023-02-11T12:04:20.759Z,22.58
2023-02-11T12:07:02.413Z,23.80
2023-02-11T12:09:40.045Z,23.50
2023-02-11T12:12:22.165Z,24.02
2023-02-11T12:15:11.292Z,22.83
2023-02-11T12:18:02.172Z,22.55
2023-02-11T12:20:36.596Z,24.17
2023-02-11T12:23:37.868Z,23.90
2023-02-11T12:26:22.336Z,22.90
2023-02-11T12:29:42.823Z,22.40
2023-02-11T12:32:33.378Z,21.85
2023-02-11T12:35:12.936Z,21.65
2023-02-11T12:38:02.323Z,23.55
2023-02-11T12:40:42.659Z,24.27
2023-02-11T12:43:34.905Z,22.07
2023-02-11T12:46:32.238Z,19.05
2023-02-11T12:49:17.548Z,19.42
2023-02-11T12:52:04.940Z,23.13
2023-02-11T12:54:45.387Z,21.95
2023-02-11T12:57:28.209Z,20.17
2023-02-11T13:00:05.044Z,18.35
2023-02-11T13:02:54.534Z,17.30
2023-02-11T13:05:29.408Z,17.80
2023-02-11T13:08:04.451Z,18.58
2023-02-11T13:10:37.295Z,22.03
2023-02-11T13:13:17.091Z,17.63
2023-02-11T13:15:51.644Z,20.60
2023-02-11T13:18:44.814Z,19.88
2023-02-11T13:21:48.317Z,18.70
2023-02-11T13:24:17.723Z,19.33
2023-02-11T13:27:06.975Z,19.25
2023-02-11T13:29:42.941Z,17.17
2023-02-11T13:32:12.045Z,19.13
2023-02-11T13:34:41.483Z,19.80
2023-02-11T13:37:36.101Z,18.33
2023-02-11T13:40:06.982Z,19.42
2023-02-11T13:42:34.775Z,18.08
2023-02-11T13:45:01.482Z,19.45
2023-02-11T13:47:32.487Z,16.77
2023-02-11T13:50:01.578Z,17.20
2023-02-11T13:52:37.216Z,17.23
2023-02-11T13:55:24.837Z,18.50
2023-02-11T13:58:06.165Z,22.83
2023-02-11T14:00:35.663Z,17.20
2023-02-11T14:03:29.725Z,17.93
2023-02-11T14:06:26.853Z,19.58
2023-02-11T14:09:14.145Z,16.10
2023-02-11T14:11:43.487Z,17.63
2023-02-11T14:14:13.193Z,20.23
2023-02-11T14:17:01.763Z,20.40
2023-02-11T14:19:40.005Z,21.45
2023-02-11T14:22:47.513Z,16.13
2023-02-11T14:25:25.181Z,20.05
2023-02-11T14:28:06.641Z,17.58
2023-02-11T14:30:43.598Z,21.67
2023-02-11T14:33:25.072Z,18.50
2023-02-11T14:36:26.800Z,18.83
2023-02-11T14:39:08.768Z,21.77
2023-02-11T14:41:43.846Z,19.92
2023-02-11T14:44:17.750Z,17.07
2023-02-11T14:46:47.413Z,17.58
2023-02-11T14:49:27.089Z,18.02
2023-02-11T14:51:59.083Z,19.27
2023-02-11T14:54:28.620Z,19.02
2023-02-11T14:57:19.210Z,20.80
2023-02-11T14:59:59.294Z,20.23
2023-02-11T15:02:32.224Z,19.00
2023-02-11T15:05:21.002Z,17.38
2023-02-11T15:07:50.087Z,17.98
2023-02-11T15:10:26.563Z,17.60
2023-02-11T15:12:53.516Z,18.48
2023-02-11T15:15:20.000Z,18.83
2023-02-11T15:17:46.798Z,20.65
2023-02-11T15:20:21.966Z,20.65
2023-02-11T15:22:54.050Z,18.73
2023-02-11T15:25:21.293Z,19.65
2023-02-11T15:27:53.884Z,18.45
2023-02-11T15:30:23.225Z,18.05
2023-02-11T15:32:50.738Z,18.00
2023-02-11T15:35:18.128Z,17.60
2023-02-11T15:37:45.452Z,19.05
2023-02-11T15:40:18.801Z,14.95
2023-02-11T15:42:56.788Z,17.23
2023-02-11T15:45:34.792Z,16.90
2023-02-11T15:48:14.605Z,22.83
2023-02-11T15:50:43.384Z,18.98
2023-02-11T15:53:21.883Z,17.90
2023-02-11T15:55:51.548Z,17.58
2023-02-11T15:58:18.209Z,18.15
2023-02-11T16:00:54.611Z,18.40
2023-02-11T16:03:28.648Z,20.25
2023-02-11T16:05:59.818Z,19.85
2023-02-11T16:08:32.744Z,17.83
2023-02-11T16:11:03.157Z,18.60
2023-02-11T16:13:33.586Z,19.23
2023-02-11T16:16:05.522Z,19.33
2023-02-11T16:18:39.107Z,18.40
2023-02-11T16:21:17.827Z,17.20
2023-02-11T16:23:52.536Z,21.30
2023-02-11T16:26:24.855Z,19.87
2023-02-11T16:28:52.062Z,19.38
2023-02-11T16:31:19.378Z,21.15
2023-02-11T16:33:45.939Z,18.50
2023-02-11T16:36:14.546Z,22.23
2023-02-11T16:38:40.943Z,23.57
2023-02-11T16:41:07.359Z,21.02
2023-02-11T16:43:33.750Z,19.88
2023-02-11T16:46:00.163Z,19.42
2023-02-11T16:48:26.626Z,20.73
2023-02-11T16:50:53.750Z,18.90
2023-02-11T16:53:23.497Z,21.30
2023-02-11T16:55:51.436Z,23.35
2023-02-11T16:58:18.237Z,23.92
2023-02-11T17:00:46.943Z,19.83
2023-02-11T17:03:25.537Z,21.70
2023-02-11T17:05:55.603Z,18.77
2023-02-11T17:08:22.322Z,21.25
2023-02-11T17:10:48.894Z,22.80
2023-02-11T17:13:15.407Z,19.17
2023-02-11T17:15:41.795Z,21.13
2023-02-11T17:18:12.162Z,21.48
2023-02-11T17:20:38.536Z,21.02
2023-02-11T17:23:04.920Z,21.23
2023-02-11T17:25:31.515Z,21.55
2023-02-11T17:27:58.006Z,18.73
2023-02-11T17:30:25.027Z,20.40
2023-02-11T17:32:51.413Z,20.40
2023-02-11T17:35:17.808Z,20.60
2023-02-11T17:37:44.195Z,22.40
2023-02-11T17:40:11.422Z,22.20
2023-02-11T17:42:37.787Z,21.20
2023-02-11T17:45:04.576Z,23.55
2023-02-11T17:47:31.025Z,26.90
2023-02-11T17:49:57.581Z,26.55
2023-02-11T17:52:24.372Z,24.77
2023-02-11T17:54:51.345Z,22.48
2023-02-11T17:57:17.834Z,20.83
2023-02-11T17:59:44.354Z,24.70
2023-02-11T18:02:12.557Z,23.00
2023-02-11T18:04:39.887Z,25.03
2023-02-11T18:07:07.008Z,24.45
2023-02-11T18:09:38.890Z,22.95
2023-02-11T18:12:06.426Z,25.48
2023-02-11T18:14:33.921Z,23.02
2023-02-11T18:17:00.582Z,22.03
2023-02-11T18:19:30.411Z,21.08
2023-02-11T18:21:59.747Z,21.50
2023-02-11T18:24:27.322Z,19.67
2023-02-11T18:26:53.765Z,21.25
2023-02-11T18:29:20.154Z,20.70
2023-02-11T18:31:46.556Z,20.73
2023-02-11T18:34:12.974Z,21.60
2023-02-11T18:36:39.420Z,21.63
2023-02-11T18:39:06.221Z,20.02
2023-02-11T18:41:32.634Z,26.80
2023-02-11T18:44:02.584Z,23.83
2023-02-11T18:46:29.708Z,28.27
2023-02-11T18:48:56.443Z,28.30
2023-02-11T18:51:23.162Z,25.02
2023-02-11T18:53:49.567Z,22.97
2023-02-11T18:56:19.257Z,27.17
2023-02-11T18:58:45.751Z,23.38
2023-02-11T19:01:16.629Z,27.08
2023-02-11T19:03:44.192Z,25.80
2023-02-11T19:06:16.127Z,28.93
2023-02-11T19:08:42.864Z,24.02
2023-02-11T19:11:09.902Z,27.80
2023-02-11T19:13:36.486Z,29.95
2023-02-11T19:16:11.039Z,25.58
2023-02-11T19:18:38.671Z,28.47
2023-02-11T19:21:12.221Z,28.55
2023-02-11T19:23:38.733Z,26.92
2023-02-11T19:26:06.299Z,27.67
2023-02-11T19:28:35.202Z,28.00
2023-02-11T19:31:06.864Z,30.60
2023-02-11T19:33:33.379Z,27.60
2023-02-11T19:36:07.626Z,30.58
2023-02-11T19:38:34.569Z,27.45
2023-02-11T19:41:00.974Z,27.77
2023-02-11T19:43:27.867Z,25.73
2023-02-11T19:45:56.264Z,27.70
2023-02-11T19:48:24.174Z,27.95
2023-02-11T19:50:50.667Z,28.08
2023-02-11T19:53:17.122Z,32.00
2023-02-11T19:55:43.512Z,32.67
2023-02-11T19:58:09.920Z,28.58
2023-02-11T20:00:36.387Z,27.33
2023-02-11T20:03:02.829Z,29.48
2023-02-11T20:05:29.226Z,34.50
2023-02-11T20:07:55.601Z,32.67
2023-02-11T20:10:23.586Z,34.33
2023-02-11T20:12:50.033Z,35.08
2023-02-11T20:15:16.549Z,33.03
2023-02-11T20:17:43.016Z,35.35
2023-02-11T20:20:09.787Z,35.47
2023-02-11T20:22:36.203Z,31.02
2023-02-11T20:25:02.611Z,34.47
2023-02-11T20:27:32.051Z,36.83
2023-02-11T20:29:58.413Z,30.95
2023-02-11T20:32:24.830Z,33.23
2023-02-11T20:34:51.187Z,31.35
2023-02-11T20:37:17.737Z,37.35
2023-02-11T20:39:45.064Z,38.75
2023-02-11T20:42:12.051Z,35.28
2023-02-11T20:44:38.884Z,39.67
2023-02-11T20:47:05.359Z,36.28
2023-02-11T20:49:32.084Z,34.05
2023-02-11T20:51:58.469Z,35.17
2023-02-11T20:54:25.554Z,38.50
2023-02-11T20:56:53.871Z,32.27
2023-02-11T20:59:23.564Z,35.83
2023-02-11T21:01:53.565Z,37.38
2023-02-11T21:04:25.507Z,39.85
2023-02-11T21:06:57.865Z,40.13
2023-02-11T21:09:27.502Z,36.23
2023-02-11T21:11:54.617Z,41.22
2023-02-11T21:14:23.196Z,38.83
2023-02-11T21:16:50.366Z,33.42
2023-02-11T21:19:17.358Z,38.92
2023-02-11T21:21:44.380Z,37.53
2023-02-11T21:24:11.043Z,37.47
2023-02-11T21:26:37.895Z,39.42
2023-02-11T21:29:06.104Z,39.05
2023-02-11T21:31:34.288Z,37.42
2023-02-11T21:34:01.183Z,40.70
2023-02-11T21:36:29.080Z,41.92
2023-02-11T21:38:55.595Z,41.60
2023-02-11T21:41:22.919Z,37.72
2023-02-11T21:43:49.926Z,41.67
2023-02-11T21:46:17.614Z,42.07
2023-02-11T21:48:44.001Z,41.22
2023-02-11T21:51:19.745Z,37.75
2023-02-11T21:53:46.613Z,37.40
2023-02-11T21:56:17.867Z,39.13
2023-02-11T21:58:45.678Z,37.37
2023-02-11T22:01:20.056Z,37.95
2023-02-11T22:03:47.325Z,43.28
2023-02-11T22:06:16.724Z,40.35
2023-02-11T22:08:43.232Z,41.20
2023-02-11T22:11:12.236Z,47.13
2023-02-11T22:13:39.517Z,39.75
2023-02-11T22:16:08.594Z,41.83
2023-02-11T22:18:35.914Z,39.63
2023-02-11T22:21:04.195Z,38.30
2023-02-11T22:23:31.637Z,40.73
2023-02-11T22:25:58.964Z,37.25
2023-02-11T22:28:26.111Z,36.75
2023-02-11T22:30:56.381Z,38.88
2023-02-11T22:33:24.628Z,37.05
2023-02-11T22:36:01.743Z,32.73
2023-02-11T22:38:29.439Z,31.63
2023-02-11T22:40:55.789Z,37.75
2023-02-11T22:43:22.342Z,38.00
2023-02-11T22:45:49.370Z,36.72
2023-02-11T22:48:15.878Z,36.57
2023-02-11T22:50:42.283Z,33.92
2023-02-11T22:53:09.067Z,37.35
2023-02-11T22:55:39.919Z,39.40
2023-02-11T22:58:06.529Z,40.00
2023-02-11T23:00:38.023Z,37.00
2023-02-11T23:03:07.217Z,37.55
2023-02-11T23:05:40.960Z,36.08
2023-02-11T23:08:09.066Z,36.80
2023-02-11T23:10:37.362Z,36.50
2023-02-11T23:13:04.421Z,36.20
2023-02-11T23:15:31.564Z,36.20
2023-02-11T23:17:58.012Z,36.95
2023-02-11T23:20:24.516Z,38.60
2023-02-11T23:22:50.859Z,38.47
2023-02-11T23:25:17.369Z,39.30
2023-02-11T23:27:43.734Z,37.88
2023-02-11T23:30:10.553Z,40.55
2023-02-11T23:32:40.794Z,42.72
2023-02-11T23:35:07.420Z,41.20
2023-02-11T23:37:33.827Z,41.87
2023-02-11T23:40:00.217Z,41.97
2023-02-11T23:42:26.587Z,44.42
2023-02-11T23:44:52.961Z,44.05
2023-02-11T23:47:19.468Z,41.72
2023-02-11T23:49:45.870Z,35.87
2023-02-11T23:52:12.224Z,44.70
2023-02-11T23:54:38.607Z,48.17
2023-02-11T23:57:05.004Z,44.60
2023-02-11T23:59:31.409Z,43.08
